sensor_id;sensor_type;location;lat;lon;timestamp;pressure;altitude;pressure_sealevel;temperature
81319;BMP280;74078;48.420;14.828;2024-01-15T00:02:17;90998.03;;;-6.47
81319;BMP280;74078;48.420;14.828;2024-01-15T00:04:42;90998.34;;;-6.55
81319;BMP280;74078;48.420;14.828;2024-01-15T00:07:08;90992.69;;;-6.56
81319;BMP280;74078;48.420;14.828;2024-01-15T00:09:33;90991.00;;;-6.27
81319;BMP280;74078;48.420;14.828;2024-01-15T00:11:58;90990.28;;;-6.24
81319;BMP280;74078;48.420;14.828;2024-01-15T00:14:24;91000.19;;;-6.27
81319;BMP280;74078;48.420;14.828;2024-01-15T00:16:49;91001.56;;;-6.34
81319;BMP280;74078;48.420;14.828;2024-01-15T00:19:16;90995.56;;;-6.33
81319;BMP280;74078;48.420;14.828;2024-01-15T00:21:41;90995.56;;;-6.36
81319;BMP280;74078;48.420;14.828;2024-01-15T00:24:07;90996.28;;;-6.39
81319;BMP280;74078;48.420;14.828;2024-01-15T00:26:32;90981.47;;;-6.39
81319;BMP280;74078;48.420;14.828;2024-01-15T00:28:58;90990.63;;;-6.36
81319;BMP280;74078;48.420;14.828;2024-01-15T00:31:23;90976.84;;;-6.37
81319;BMP280;74078;48.420;14.828;2024-01-15T00:33:48;90973.34;;;-6.18
81319;BMP280;74078;48.420;14.828;2024-01-15T00:36:13;90962.38;;;-6.17
81319;BMP280;74078;48.420;14.828;2024-01-15T00:38:39;90962.75;;;-6.19
81319;BMP280;74078;48.420;14.828;2024-01-15T00:41:04;90958.50;;;-6.40
81319;BMP280;74078;48.420;14.828;2024-01-15T00:43:30;90951.44;;;-6.41
81319;BMP280;74078;48.420;14.828;2024-01-15T00:45:55;90952.16;;;-6.30
81319;BMP280;74078;48.420;14.828;2024-01-15T00:48:20;90957.06;;;-6.34
81319;BMP280;74078;48.420;14.828;2024-01-15T00:50:45;90950.72;;;-6.31
81319;BMP280;74078;48.420;14.828;2024-01-15T00:53:10;90959.22;;;-6.25
81319;BMP280;74078;48.420;14.828;2024-01-15T00:55:36;90965.56;;;-6.35
81319;BMP280;74078;48.420;14.828;2024-01-15T00:58:02;90966.97;;;-6.48
81319;BMP280;74078;48.420;14.828;2024-01-15T01:00:27;90965.19;;;-6.47
81319;BMP280;74078;48.420;14.828;2024-01-15T01:02:53;90962.03;;;-6.37
81319;BMP280;74078;48.420;14.828;2024-01-15T01:05:18;90966.28;;;-6.31
81319;BMP280;74078;48.420;14.828;2024-01-15T01:07:43;90967.34;;;-6.28
81319;BMP280;74078;48.420;14.828;2024-01-15T01:10:08;90961.34;;;-6.34
81319;BMP280;74078;48.420;14.828;2024-01-15T01:12:34;90960.63;;;-6.24
81319;BMP280;74078;48.420;14.828;2024-01-15T01:14:59;90944.38;;;-6.21
81319;BMP280;74078;48.420;14.828;2024-01-15T01:17:24;90935.19;;;-6.21
81319;BMP280;74078;48.420;14.828;2024-01-15T01:19:50;90949.31;;;-6.14
81319;BMP280;74078;48.420;14.828;2024-01-15T01:22:15;90925.31;;;-6.00
81319;BMP280;74078;48.420;14.828;2024-01-15T01:24:40;90929.53;;;-6.00
81319;BMP280;74078;48.420;14.828;2024-01-15T01:27:05;90959.91;;;-6.10
81319;BMP280;74078;48.420;14.828;2024-01-15T01:29:31;90956.38;;;-6.06
81319;BMP280;74078;48.420;14.828;2024-01-15T01:31:56;90938.72;;;-6.15
81319;BMP280;74078;48.420;14.828;2024-01-15T01:34:21;90930.28;;;-6.28
81319;BMP280;74078;48.420;14.828;2024-01-15T01:36:47;90911.91;;;-6.23
81319;BMP280;74078;48.420;14.828;2024-01-15T01:39:12;90924.94;;;-6.37
81319;BMP280;74078;48.420;14.828;2024-01-15T01:41:38;90930.59;;;-6.44
81319;BMP280;74078;48.420;14.828;2024-01-15T01:44:03;90928.13;;;-6.47
81319;BMP280;74078;48.420;14.828;2024-01-15T01:46:28;90921.03;;;-6.70
81319;BMP280;74078;48.420;14.828;2024-01-15T01:48:54;90907.66;;;-6.62
81319;BMP280;74078;48.420;14.828;2024-01-15T01:51:20;90915.03;;;-6.76
81319;BMP280;74078;48.420;14.828;2024-01-15T01:53:46;90911.88;;;-6.62
81319;BMP280;74078;48.420;14.828;2024-01-15T01:56:12;90910.81;;;-6.58
81319;BMP280;74078;48.420;14.828;2024-01-15T01:58:37;90911.16;;;-6.59
81319;BMP280;74078;48.420;14.828;2024-01-15T02:01:03;90904.13;;;-6.54
81319;BMP280;74078;48.420;14.828;2024-01-15T02:03:29;90907.28;;;-6.57
81319;BMP280;74078;48.420;14.828;2024-01-15T02:05:55;90912.59;;;-6.55
81319;BMP280;74078;48.420;14.828;2024-01-15T02:08:21;90917.53;;;-6.51
81319;BMP280;74078;48.420;14.828;2024-01-15T02:10:46;90922.47;;;-6.69
81319;BMP280;74078;48.420;14.828;2024-01-15T02:13:12;90920.00;;;-6.69
81319;BMP280;74078;48.420;14.828;2024-01-15T02:15:37;90903.06;;;-6.63
81319;BMP280;74078;48.420;14.828;2024-01-15T02:18:03;90909.06;;;-6.64
81319;BMP280;74078;48.420;14.828;2024-01-15T02:20:29;90905.53;;;-6.60
81319;BMP280;74078;48.420;14.828;2024-01-15T02:23:16;90899.19;;;-6.54
81319;BMP280;74078;48.420;14.828;2024-01-15T02:25:44;90910.84;;;-6.26
81319;BMP280;74078;48.420;14.828;2024-01-15T02:28:11;90898.16;;;-6.42
81319;BMP280;74078;48.420;14.828;2024-01-15T02:30:36;90896.38;;;-6.38
81319;BMP280;74078;48.420;14.828;2024-01-15T02:33:04;90903.41;;;-6.37
81319;BMP280;74078;48.420;14.828;2024-01-15T02:35:29;90906.25;;;-6.52
81319;BMP280;74078;48.420;14.828;2024-01-15T02:37:54;90903.81;;;-6.42
81319;BMP280;74078;48.420;14.828;2024-01-15T02:40:20;90904.13;;;-6.25
81319;BMP280;74078;48.420;14.828;2024-01-15T02:42:45;90908.38;;;-6.22
81319;BMP280;74078;48.420;14.828;2024-01-15T02:45:10;90902.03;;;-6.27
81319;BMP280;74078;48.420;14.828;2024-01-15T02:47:35;90910.47;;;-6.21
81319;BMP280;74078;48.420;14.828;2024-01-15T02:50:00;90910.09;;;-6.05
81319;BMP280;74078;48.420;14.828;2024-01-15T02:52:26;90904.81;;;-6.07
81319;BMP280;74078;48.420;14.828;2024-01-15T02:54:51;90901.28;;;-6.13
81319;BMP280;74078;48.420;14.828;2024-01-15T02:57:16;90894.91;;;-6.18
81319;BMP280;74078;48.420;14.828;2024-01-15T02:59:41;90894.59;;;-6.23
81319;BMP280;74078;48.420;14.828;2024-01-15T03:02:07;90893.16;;;-6.17
81319;BMP280;74078;48.420;14.828;2024-01-15T03:04:33;90895.63;;;-6.17
81319;BMP280;74078;48.420;14.828;2024-01-15T03:07:00;90885.72;;;-6.03
81319;BMP280;74078;48.420;14.828;2024-01-15T03:09:26;90887.13;;;-5.92
81319;BMP280;74078;48.420;14.828;2024-01-15T03:11:53;90889.22;;;-5.83
81319;BMP280;74078;48.420;14.828;2024-01-15T03:14:18;90902.66;;;-5.84
81319;BMP280;74078;48.420;14.828;2024-01-15T03:16:45;90909.69;;;-5.75
81319;BMP280;74078;48.420;14.828;2024-01-15T03:19:12;90903.34;;;-5.69
81319;BMP280;74078;48.420;14.828;2024-01-15T03:21:38;90893.41;;;-5.66
81319;BMP280;74078;48.420;14.828;2024-01-15T03:24:04;90895.56;;;-5.71
81319;BMP280;74078;48.420;14.828;2024-01-15T03:26:31;90913.53;;;-5.64
81319;BMP280;74078;48.420;14.828;2024-01-15T03:28:57;90923.13;;;-5.69
81319;BMP280;74078;48.420;14.828;2024-01-15T03:31:24;90923.78;;;-5.58
81319;BMP280;74078;48.420;14.828;2024-01-15T03:33:50;90942.88;;;-5.59
81319;BMP280;74078;48.420;14.828;2024-01-15T03:36:16;90924.81;;;-5.52
81319;BMP280;74078;48.420;14.828;2024-01-15T03:38:43;90928.72;;;-5.58
81319;BMP280;74078;48.420;14.828;2024-01-15T03:41:09;90934.75;;;-5.56
81319;BMP280;74078;48.420;14.828;2024-01-15T03:43:35;90925.16;;;-5.43
81319;BMP280;74078;48.420;14.828;2024-01-15T03:46:02;90940.00;;;-5.47
81319;BMP280;74078;48.420;14.828;2024-01-15T03:48:30;90952.03;;;-5.38
81319;BMP280;74078;48.420;14.828;2024-01-15T03:50:56;90958.75;;;-5.42
81319;BMP280;74078;48.420;14.828;2024-01-15T03:53:23;90948.13;;;-5.39
81319;BMP280;74078;48.420;14.828;2024-01-15T03:55:49;90959.06;;;-5.33
81319;BMP280;74078;48.420;14.828;2024-01-15T03:58:16;90956.94;;;-5.31
81319;BMP280;74078;48.420;14.828;2024-01-15T04:00:42;90954.13;;;-5.36
81319;BMP280;74078;48.420;14.828;2024-01-15T04:03:08;90953.81;;;-5.38
81319;BMP280;74078;48.420;14.828;2024-01-15T04:05:35;90956.63;;;-5.44
81319;BMP280;74078;48.420;14.828;2024-01-15T04:08:01;90955.91;;;-5.40
81319;BMP280;74078;48.420;14.828;2024-01-15T04:10:28;90962.28;;;-5.39
81319;BMP280;74078;48.420;14.828;2024-01-15T04:12:54;90955.53;;;-5.35
81319;BMP280;74078;48.420;14.828;2024-01-15T04:15:20;90966.88;;;-5.38
81319;BMP280;74078;48.420;14.828;2024-01-15T04:17:47;90967.56;;;-5.45
81319;BMP280;74078;48.420;14.828;2024-01-15T04:20:13;90961.56;;;-5.44
81319;BMP280;74078;48.420;14.828;2024-01-15T04:22:39;90959.81;;;-5.39
81319;BMP280;74078;48.420;14.828;2024-01-15T04:25:06;90971.47;;;-5.36
81319;BMP280;74078;48.420;14.828;2024-01-15T04:27:32;90971.47;;;-5.44
81319;BMP280;74078;48.420;14.828;2024-01-15T04:29:59;90965.47;;;-5.46
81319;BMP280;74078;48.420;14.828;2024-01-15T04:32:28;90970.06;;;-5.48
81319;BMP280;74078;48.420;14.828;2024-01-15T04:34:55;90972.94;;;-5.53
81319;BMP280;74078;48.420;14.828;2024-01-15T04:37:21;90976.81;;;-5.56
81319;BMP280;74078;48.420;14.828;2024-01-15T04:39:48;90975.03;;;-5.48
81319;BMP280;74078;48.420;14.828;2024-01-15T04:42:14;90976.78;;;-5.45
81319;BMP280;74078;48.420;14.828;2024-01-15T04:44:44;90968.66;;;-5.46
81319;BMP280;74078;48.420;14.828;2024-01-15T04:47:10;90967.56;;;-5.45
81319;BMP280;74078;48.420;14.828;2024-01-15T04:49:36;90967.56;;;-5.45
81319;BMP280;74078;48.420;14.828;2024-01-15T04:52:05;90967.22;;;-5.43
81319;BMP280;74078;48.420;14.828;2024-01-15T04:54:32;90962.97;;;-5.35
81319;BMP280;74078;48.420;14.828;2024-01-15T04:56:58;90954.13;;;-5.29
81319;BMP280;74078;48.420;14.828;2024-01-15T04:59:27;90968.28;;;-5.33
81319;BMP280;74078;48.420;14.828;2024-01-15T05:01:54;90976.06;;;-5.35
81319;BMP280;74078;48.420;14.828;2024-01-15T05:04:21;90973.94;;;-5.36
81319;BMP280;74078;48.420;14.828;2024-01-15T05:06:48;90993.41;;;-5.35
81319;BMP280;74078;48.420;14.828;2024-01-15T05:09:14;90989.84;;;-5.30
81319;BMP280;74078;48.420;14.828;2024-01-15T05:11:40;90995.84;;;-5.24
81319;BMP280;74078;48.420;14.828;2024-01-15T05:14:06;90991.94;;;-5.18
81319;BMP280;74078;48.420;14.828;2024-01-15T05:16:33;91008.59;;;-5.29
81319;BMP280;74078;48.420;14.828;2024-01-15T05:18:59;90975.31;;;-5.28
81319;BMP280;74078;48.420;14.828;2024-01-15T05:21:26;90984.19;;;-5.34
81319;BMP280;74078;48.420;14.828;2024-01-15T05:23:52;90988.78;;;-5.22
81319;BMP280;74078;48.420;14.828;2024-01-15T05:26:18;90988.75;;;-5.26
81319;BMP280;74078;48.420;14.828;2024-01-15T05:28:45;90991.63;;;-5.34
81319;BMP280;74078;48.420;14.828;2024-01-15T05:31:12;91004.69;;;-5.27
81319;BMP280;74078;48.420;14.828;2024-01-15T05:33:38;90996.56;;;-5.34
81319;BMP280;74078;48.420;14.828;2024-01-15T05:36:05;90998.72;;;-5.40
81319;BMP280;74078;48.420;14.828;2024-01-15T05:38:32;90997.97;;;-5.26
81319;BMP280;74078;48.420;14.828;2024-01-15T05:40:58;90990.91;;;-5.31
81319;BMP280;74078;48.420;14.828;2024-01-15T05:43:25;90997.66;;;-5.39
81319;BMP280;74078;48.420;14.828;2024-01-15T05:45:51;90999.78;;;-5.37
81319;BMP280;74078;48.420;14.828;2024-01-15T05:48:17;90987.41;;;-5.37
81319;BMP280;74078;48.420;14.828;2024-01-15T05:50:44;90993.34;;;-5.28
81319;BMP280;74078;48.420;14.828;2024-01-15T05:53:10;90997.25;;;-5.30
81319;BMP280;74078;48.420;14.828;2024-01-15T05:55:37;91012.50;;;-5.39
81319;BMP280;74078;48.420;14.828;2024-01-15T05:58:04;91006.47;;;-5.34
81319;BMP280;74078;48.420;14.828;2024-01-15T06:00:31;91006.47;;;-5.41
81319;BMP280;74078;48.420;14.828;2024-01-15T06:03:02;91003.63;;;-5.33
81319;BMP280;74078;48.420;14.828;2024-01-15T06:05:29;91003.25;;;-5.24
81319;BMP280;74078;48.420;14.828;2024-01-15T06:07:58;90998.69;;;-5.22
81319;BMP280;74078;48.420;14.828;2024-01-15T06:10:25;91009.28;;;-5.29
81319;BMP280;74078;48.420;14.828;2024-01-15T06:12:51;91007.91;;;-5.40
81319;BMP280;74078;48.420;14.828;2024-01-15T06:15:20;91005.06;;;-5.35
81319;BMP280;74078;48.420;14.828;2024-01-15T06:17:47;90995.84;;;-5.31
81319;BMP280;74078;48.420;14.828;2024-01-15T06:20:14;91003.66;;;-5.44
81319;BMP280;74078;48.420;14.828;2024-01-15T06:22:40;91000.09;;;-5.35
81319;BMP280;74078;48.420;14.828;2024-01-15T06:25:07;91003.28;;;-5.31
81319;BMP280;74078;48.420;14.828;2024-01-15T06:27:34;90996.19;;;-5.19
81319;BMP280;74078;48.420;14.828;2024-01-15T06:30:01;91000.06;;;-5.28
81319;BMP280;74078;48.420;14.828;2024-01-15T06:32:28;90993.38;;;-5.31
81319;BMP280;74078;48.420;14.828;2024-01-15T06:34:54;91001.53;;;-5.34
81319;BMP280;74078;48.420;14.828;2024-01-15T06:37:21;91006.44;;;-5.27
81319;BMP280;74078;48.420;14.828;2024-01-15T06:39:48;90994.06;;;-5.20
81319;BMP280;74078;48.420;14.828;2024-01-15T06:42:14;90995.50;;;-5.23
81319;BMP280;74078;48.420;14.828;2024-01-15T06:44:40;90990.16;;;-5.25
81319;BMP280;74078;48.420;14.828;2024-01-15T06:47:07;90976.69;;;-5.13
81319;BMP280;74078;48.420;14.828;2024-01-15T06:49:33;90973.19;;;-5.19
81319;BMP280;74078;48.420;14.828;2024-01-15T06:51:59;90990.47;;;-5.05
81319;BMP280;74078;48.420;14.828;2024-01-15T06:54:26;90998.69;;;-5.22
81319;BMP280;74078;48.420;14.828;2024-01-15T06:56:52;91009.28;;;-5.18
81319;BMP280;74078;48.420;14.828;2024-01-15T06:59:19;91013.50;;;-5.15
81319;BMP280;74078;48.420;14.828;2024-01-15T07:01:45;91009.97;;;-5.14
81319;BMP280;74078;48.420;14.828;2024-01-15T07:04:11;91020.94;;;-5.19
81319;BMP280;74078;48.420;14.828;2024-01-15T07:06:38;91007.84;;;-5.19
81319;BMP280;74078;48.420;14.828;2024-01-15T07:09:05;91011.34;;;-5.13
81319;BMP280;74078;48.420;14.828;2024-01-15T07:11:31;91009.28;;;-5.18
81319;BMP280;74078;48.420;14.828;2024-01-15T07:13:57;91018.13;;;-5.31
81319;BMP280;74078;48.420;14.828;2024-01-15T07:16:24;91012.81;;;-5.26
81319;BMP280;74078;48.420;14.828;2024-01-15T07:18:50;91010.66;;;-5.17
81319;BMP280;74078;48.420;14.828;2024-01-15T07:21:16;91012.75;;;-5.12
81319;BMP280;74078;48.420;14.828;2024-01-15T07:23:43;91018.41;;;-5.05
81319;BMP280;74078;48.420;14.828;2024-01-15T07:26:09;91014.16;;;-5.04
81319;BMP280;74078;48.420;14.828;2024-01-15T07:28:36;91009.59;;;-5.13
81319;BMP280;74078;48.420;14.828;2024-01-15T07:31:02;91019.50;;;-5.16
81319;BMP280;74078;48.420;14.828;2024-01-15T07:33:29;91023.78;;;-5.27
81319;BMP280;74078;48.420;14.828;2024-01-15T07:35:55;91032.25;;;-5.21
81319;BMP280;74078;48.420;14.828;2024-01-15T07:38:22;91033.34;;;-5.33
81319;BMP280;74078;48.420;14.828;2024-01-15T07:40:48;91019.88;;;-5.28
81319;BMP280;74078;48.420;14.828;2024-01-15T07:43:15;91022.38;;;-5.32
81319;BMP280;74078;48.420;14.828;2024-01-15T07:45:41;91014.97;;;-5.39
81319;BMP280;74078;48.420;14.828;2024-01-15T07:48:08;91027.34;;;-5.35
81319;BMP280;74078;48.420;14.828;2024-01-15T07:50:38;91029.41;;;-5.16
81319;BMP280;74078;48.420;14.828;2024-01-15T07:53:04;91036.81;;;-5.13
81319;BMP280;74078;48.420;14.828;2024-01-15T07:55:31;91039.66;;;-5.25
81319;BMP280;74078;48.420;14.828;2024-01-15T07:57:57;91034.72;;;-5.25
81319;BMP280;74078;48.420;14.828;2024-01-15T08:00:30;91040.41;;;-5.24
81319;BMP280;74078;48.420;14.828;2024-01-15T08:02:56;91041.84;;;-5.23
81319;BMP280;74078;48.420;14.828;2024-01-15T08:05:23;91036.88;;;-5.27
81319;BMP280;74078;48.420;14.828;2024-01-15T08:07:49;91038.28;;;-5.26
81319;BMP280;74078;48.420;14.828;2024-01-15T08:10:16;91041.44;;;-5.25
81319;BMP280;74078;48.420;14.828;2024-01-15T08:12:42;91038.28;;;-5.19
81319;BMP280;74078;48.420;14.828;2024-01-15T08:15:09;91034.72;;;-5.14
81319;BMP280;74078;48.420;14.828;2024-01-15T08:17:38;91029.06;;;-5.15
81319;BMP280;74078;48.420;14.828;2024-01-15T08:20:05;91023.03;;;-5.03
81319;BMP280;74078;48.420;14.828;2024-01-15T08:22:32;91024.72;;;-4.89
81319;BMP280;74078;48.420;14.828;2024-01-15T08:24:59;91020.50;;;-4.96
81319;BMP280;74078;48.420;14.828;2024-01-15T08:27:25;91022.59;;;-4.94
81319;BMP280;74078;48.420;14.828;2024-01-15T08:29:52;91023.31;;;-4.94
81319;BMP280;74078;48.420;14.828;2024-01-15T08:32:18;91027.56;;;-4.87
81319;BMP280;74078;48.420;14.828;2024-01-15T08:34:45;91029.72;;;-5.00
81319;BMP280;74078;48.420;14.828;2024-01-15T08:37:14;91037.47;;;-4.98
81319;BMP280;74078;48.420;14.828;2024-01-15T08:39:40;91036.72;;;-4.81
81319;BMP280;74078;48.420;14.828;2024-01-15T08:42:07;91037.47;;;-4.91
81319;BMP280;74078;48.420;14.828;2024-01-15T08:44:33;91030.34;;;-4.78
81319;BMP280;74078;48.420;14.828;2024-01-15T08:47:00;91018.28;;;-4.69
81319;BMP280;74078;48.420;14.828;2024-01-15T08:49:26;91027.53;;;-4.84
81319;BMP280;74078;48.420;14.828;2024-01-15T08:51:53;91016.09;;;-4.64
81319;BMP280;74078;48.420;14.828;2024-01-15T08:54:19;91015.00;;;-4.52
81319;BMP280;74078;48.420;14.828;2024-01-15T08:56:46;91017.47;;;-4.56
81319;BMP280;74078;48.420;14.828;2024-01-15T08:59:12;91015.38;;;-4.57
81319;BMP280;74078;48.420;14.828;2024-01-15T09:01:38;91024.56;;;-4.58
81319;BMP280;74078;48.420;14.828;2024-01-15T09:04:05;91013.19;;;-4.44
81319;BMP280;74078;48.420;14.828;2024-01-15T09:06:31;91022.06;;;-4.50
81319;BMP280;74078;48.420;14.828;2024-01-15T09:08:58;91018.88;;;-4.54
81319;BMP280;74078;48.420;14.828;2024-01-15T09:11:25;91012.16;;;-4.50
81319;BMP280;74078;48.420;14.828;2024-01-15T09:13:52;91023.78;;;-4.44
81319;BMP280;74078;48.420;14.828;2024-01-15T09:16:21;91017.47;;;-4.52
81319;BMP280;74078;48.420;14.828;2024-01-15T09:18:48;91020.94;;;-4.39
81319;BMP280;74078;48.420;14.828;2024-01-15T09:21:14;91020.56;;;-4.37
81319;BMP280;74078;48.420;14.828;2024-01-15T09:23:41;91020.22;;;-4.39
81319;BMP280;74078;48.420;14.828;2024-01-15T09:26:08;91015.97;;;-4.35
81319;BMP280;74078;48.420;14.828;2024-01-15T09:28:34;91018.06;;;-4.30
81319;BMP280;74078;48.420;14.828;2024-01-15T09:31:01;91009.75;;;-4.09
81319;BMP280;74078;48.420;14.828;2024-01-15T09:33:27;91007.41;;;-4.27
81319;BMP280;74078;48.420;14.828;2024-01-15T09:35:53;90998.50;;;-4.21
81319;BMP280;74078;48.420;14.828;2024-01-15T09:38:20;91008.00;;;-4.13
81319;BMP280;74078;48.420;14.828;2024-01-15T09:40:46;90995.34;;;-4.25
81319;BMP280;74078;48.420;14.828;2024-01-15T09:43:13;91001.56;;;-4.03
81319;BMP280;74078;48.420;14.828;2024-01-15T09:45:41;90991.22;;;-3.98
81319;BMP280;74078;48.420;14.828;2024-01-15T09:48:08;90987.91;;;-4.25
81319;BMP280;74078;48.420;14.828;2024-01-15T09:50:34;90996.47;;;-4.37
81319;BMP280;74078;48.420;14.828;2024-01-15T09:53:01;90994.00;;;-4.33
81319;BMP280;74078;48.420;14.828;2024-01-15T09:55:27;91002.09;;;-4.26
81319;BMP280;74078;48.420;14.828;2024-01-15T09:57:54;91009.09;;;-4.13
81319;BMP280;74078;48.420;14.828;2024-01-15T10:00:21;90991.53;;;-4.37
81319;BMP280;74078;48.420;14.828;2024-01-15T10:02:51;90995.69;;;-4.23
81319;BMP280;74078;48.420;14.828;2024-01-15T10:05:17;90994.69;;;-4.29
81319;BMP280;74078;48.420;14.828;2024-01-15T10:07:43;90985.44;;;-4.29
81319;BMP280;74078;48.420;14.828;2024-01-15T10:10:11;90987.31;;;-4.43
81319;BMP280;74078;48.420;14.828;2024-01-15T10:12:39;90991.09;;;-4.28
81319;BMP280;74078;48.420;14.828;2024-01-15T10:15:05;90996.88;;;-4.42
81319;BMP280;74078;48.420;14.828;2024-01-15T10:17:31;91000.72;;;-4.37
81319;BMP280;74078;48.420;14.828;2024-01-15T10:19:58;90996.09;;;-4.32
81319;BMP280;74078;48.420;14.828;2024-01-15T10:22:25;91008.16;;;-4.37
81319;BMP280;74078;48.420;14.828;2024-01-15T10:24:52;91004.69;;;-4.47
81319;BMP280;74078;48.420;14.828;2024-01-15T10:27:18;90992.91;;;-4.32
81319;BMP280;74078;48.420;14.828;2024-01-15T10:29:45;90987.91;;;-4.25
81319;BMP280;74078;48.420;14.828;2024-01-15T10:32:11;90990.44;;;-4.32
81319;BMP280;74078;48.420;14.828;2024-01-15T10:34:38;90994.53;;;-4.15
81319;BMP280;74078;48.420;14.828;2024-01-15T10:37:08;90994.69;;;-4.29
81319;BMP280;74078;48.420;14.828;2024-01-15T10:39:35;90993.97;;;-4.30
81319;BMP280;74078;48.420;14.828;2024-01-15T10:42:02;90994.25;;;-4.24
81319;BMP280;74078;48.420;14.828;2024-01-15T10:44:29;90984.69;;;-4.22
81319;BMP280;74078;48.420;14.828;2024-01-15T10:46:55;90992.88;;;-4.25
81319;BMP280;74078;48.420;14.828;2024-01-15T10:49:23;90991.13;;;-4.32
81319;BMP280;74078;48.420;14.828;2024-01-15T10:51:52;90987.81;;;-4.15
81319;BMP280;74078;48.420;14.828;2024-01-15T10:54:19;90997.44;;;-4.24
81319;BMP280;74078;48.420;14.828;2024-01-15T10:56:46;90989.69;;;-4.26
81319;BMP280;74078;48.420;14.828;2024-01-15T10:59:12;90994.53;;;-4.15
81319;BMP280;74078;48.420;14.828;2024-01-15T11:01:42;90993.06;;;-4.05
81319;BMP280;74078;48.420;14.828;2024-01-15T11:04:09;91002.31;;;-4.09
81319;BMP280;74078;48.420;14.828;2024-01-15T11:06:43;90990.50;;;-3.91
81319;BMP280;74078;48.420;14.828;2024-01-15T11:09:11;90995.78;;;-3.89
81319;BMP280;74078;48.420;14.828;2024-01-15T11:11:44;90989.78;;;-3.92
81319;BMP280;74078;48.420;14.828;2024-01-15T11:14:33;90983.78;;;-3.57
81319;BMP280;74078;48.420;14.828;2024-01-15T11:16:58;90985.75;;;-3.79
81319;BMP280;74078;48.420;14.828;2024-01-15T11:19:25;90984.47;;;-3.90
81319;BMP280;74078;48.420;14.828;2024-01-15T11:21:54;90978.69;;;-3.80
81319;BMP280;74078;48.420;14.828;2024-01-15T11:27:16;90965.72;;;-3.61
81319;BMP280;74078;48.420;14.828;2024-01-15T11:30:07;90975.53;;;-3.50
81319;BMP280;74078;48.420;14.828;2024-01-15T11:32:34;90972.69;;;-3.49
81319;BMP280;74078;48.420;14.828;2024-01-15T11:35:01;90966.44;;;-3.60
81319;BMP280;74078;48.420;14.828;2024-01-15T11:37:29;90969.25;;;-3.58
81319;BMP280;74078;48.420;14.828;2024-01-15T11:40:00;90972.22;;;-3.71
81319;BMP280;74078;48.420;14.828;2024-01-15T11:42:29;90973.59;;;-3.66
81319;BMP280;74078;48.420;14.828;2024-01-15T11:44:55;90961.13;;;-3.62
81319;BMP280;74078;48.420;14.828;2024-01-15T11:50:08;90952.34;;;-3.71
81319;BMP280;74078;48.420;14.828;2024-01-15T11:52:37;90951.00;;;-3.79
81319;BMP280;74078;48.420;14.828;2024-01-15T11:58:00;90956.97;;;-3.73
81319;BMP280;74078;48.420;14.828;2024-01-15T12:00:27;90939.13;;;-3.60
81319;BMP280;74078;48.420;14.828;2024-01-15T12:02:54;90939.94;;;-3.67
81319;BMP280;74078;48.420;14.828;2024-01-15T12:05:21;90937.31;;;-3.56
81319;BMP280;74078;48.420;14.828;2024-01-15T12:07:46;90946.28;;;-3.36
81319;BMP280;74078;48.420;14.828;2024-01-15T12:10:15;90932.22;;;-3.15
81319;BMP280;74078;48.420;14.828;2024-01-15T12:15:22;90935.94;;;-3.00
81319;BMP280;74078;48.420;14.828;2024-01-15T12:17:47;90932.09;;;-2.78
81319;BMP280;74078;48.420;14.828;2024-01-15T12:20:13;90934.97;;;-3.37
81319;BMP280;74078;48.420;14.828;2024-01-15T12:22:38;90922.06;;;-3.28
81319;BMP280;74078;48.420;14.828;2024-01-15T12:25:04;90923.41;;;-3.20
81319;BMP280;74078;48.420;14.828;2024-01-15T12:27:29;90928.59;;;-2.81
81319;BMP280;74078;48.420;14.828;2024-01-15T12:29:55;90922.72;;;-3.20
81319;BMP280;74078;48.420;14.828;2024-01-15T12:32:20;90926.25;;;-3.18
81319;BMP280;74078;48.420;14.828;2024-01-15T12:34:49;90909.06;;;-3.09
81319;BMP280;74078;48.420;14.828;2024-01-15T12:37:14;90915.88;;;-3.43
81319;BMP280;74078;48.420;14.828;2024-01-15T12:39:39;90913.19;;;-3.56
81319;BMP280;74078;48.420;14.828;2024-01-15T12:42:07;90905.78;;;-3.29
81319;BMP280;74078;48.420;14.828;2024-01-15T12:44:32;90906.50;;;-3.29
81319;BMP280;74078;48.420;14.828;2024-01-15T12:46:58;90900.00;;;-3.22
81319;BMP280;74078;48.420;14.828;2024-01-15T12:49:25;90903.53;;;-3.50
81319;BMP280;74078;48.420;14.828;2024-01-15T12:51:54;90897.69;;;-3.63
81319;BMP280;74078;48.420;14.828;2024-01-15T12:54:19;90900.66;;;-3.45
81319;BMP280;74078;48.420;14.828;2024-01-15T12:56:44;90898.66;;;-3.57
81319;BMP280;74078;48.420;14.828;2024-01-15T12:59:09;90901.53;;;-3.62
81319;BMP280;74078;48.420;14.828;2024-01-15T13:01:35;90898.28;;;-3.56
81319;BMP280;74078;48.420;14.828;2024-01-15T13:04:01;90901.19;;;-3.61
81319;BMP280;74078;48.420;14.828;2024-01-15T13:06:26;90906.19;;;-3.64
81319;BMP280;74078;48.420;14.828;2024-01-15T13:08:51;90906.31;;;-3.75
81319;BMP280;74078;48.420;14.828;2024-01-15T13:11:16;90906.19;;;-3.64
81319;BMP280;74078;48.420;14.828;2024-01-15T13:13:42;90911.91;;;-3.67
81319;BMP280;74078;48.420;14.828;2024-01-15T13:16:08;90913.28;;;-3.66
81319;BMP280;74078;48.420;14.828;2024-01-15T13:18:34;90914.78;;;-3.73
81319;BMP280;74078;48.420;14.828;2024-01-15T13:20:59;90900.13;;;-3.60
81319;BMP280;74078;48.420;14.828;2024-01-15T13:23:25;90895.59;;;-3.68
81319;BMP280;74078;48.420;14.828;2024-01-15T13:25:50;90898.84;;;-3.72
81319;BMP280;74078;48.420;14.828;2024-01-15T13:28:15;90891.13;;;-3.50
81319;BMP280;74078;48.420;14.828;2024-01-15T13:30:41;90882.69;;;-3.56
81319;BMP280;74078;48.420;14.828;2024-01-15T13:33:06;90898.34;;;-3.63
81319;BMP280;74078;48.420;14.828;2024-01-15T13:35:31;90901.09;;;-3.54
81319;BMP280;74078;48.420;14.828;2024-01-15T13:37:57;90881.88;;;-3.46
81319;BMP280;74078;48.420;14.828;2024-01-15T13:40:23;90889.78;;;-3.58
81319;BMP280;74078;48.420;14.828;2024-01-15T13:42:48;90892.66;;;-3.60
81319;BMP280;74078;48.420;14.828;2024-01-15T13:45:13;90899.63;;;-3.48
81319;BMP280;74078;48.420;14.828;2024-01-15T13:47:39;90903.66;;;-3.61
81319;BMP280;74078;48.420;14.828;2024-01-15T13:50:06;90908.84;;;-3.48
81319;BMP280;74078;48.420;14.828;2024-01-15T13:52:31;90908.53;;;-3.54
81319;BMP280;74078;48.420;14.828;2024-01-15T13:54:56;90906.06;;;-3.54
81319;BMP280;74078;48.420;14.828;2024-01-15T13:57:22;90909.88;;;-3.46
81319;BMP280;74078;48.420;14.828;2024-01-15T13:59:47;90920.16;;;-3.47
81319;BMP280;74078;48.420;14.828;2024-01-15T14:02:14;90915.88;;;-3.43
81319;BMP280;74078;48.420;14.828;2024-01-15T14:04:39;90918.78;;;-3.48